createdAt,value
2022-09-06T00:02:20.624Z,3.20
2022-09-06T00:04:49.218Z,3.25
2022-09-06T00:07:18.497Z,3.10
2022-09-06T00:09:46.924Z,3.63
2022-09-06T00:12:15.103Z,3.30
2022-09-06T00:14:43.092Z,3.03
2022-09-06T00:17:11.225Z,3.60
2022-09-06T00:19:39.254Z,3.20
2022-09-06T00:22:07.336Z,3.20
2022-09-06T00:24:37.368Z,3.55
2022-09-06T00:27:06.302Z,3.40
2022-09-06T00:29:34.786Z,3.45
2022-09-06T00:32:03.170Z,3.13
2022-09-06T00:34:31.260Z,2.90
2022-09-06T00:36:59.224Z,3.92
2022-09-06T00:39:27.222Z,3.20
2022-09-06T00:41:56.531Z,3.45
2022-09-06T00:44:24.529Z,3.65
2022-09-06T00:46:54.901Z,3.10
2022-09-06T00:49:26.442Z,3.00
2022-09-06T00:51:58.271Z,2.90
2022-09-06T00:54:26.937Z,3.20
2022-09-06T00:56:58.746Z,2.65
2022-09-06T00:59:28.040Z,3.33
2022-09-06T01:01:56.067Z,3.05
2022-09-06T01:04:25.009Z,2.70
2022-09-06T01:07:02.380Z,2.45
2022-09-06T01:09:44.913Z,2.85
2022-09-06T01:12:29.348Z,3.10
2022-09-06T01:15:07.468Z,3.00
2022-09-06T01:17:45.678Z,2.63
2022-09-06T01:20:41.760Z,2.88
2022-09-06T01:23:37.645Z,3.13
2022-09-06T01:26:18.489Z,2.45
2022-09-06T01:28:48.348Z,2.65
2022-09-06T01:31:24.091Z,2.78
2022-09-06T01:33:59.712Z,2.70
2022-09-06T01:36:33.029Z,2.85
2022-09-06T01:39:01.026Z,2.78
2022-09-06T01:41:29.891Z,2.55
2022-09-06T01:44:00.215Z,2.90
2022-09-06T01:46:35.675Z,2.83
2022-09-06T01:49:24.705Z,2.85
2022-09-06T01:52:05.430Z,2.58
2022-09-06T01:54:47.510Z,2.83
2022-09-06T01:57:26.840Z,3.00
2022-09-06T02:00:09.066Z,3.00
2022-09-06T02:02:51.445Z,3.25
2022-09-06T02:05:25.169Z,3.00
2022-09-06T02:07:58.715Z,2.90
2022-09-06T02:10:31.205Z,2.85
2022-09-06T02:13:02.580Z,3.20
2022-09-06T02:15:35.133Z,2.85
2022-09-06T02:18:07.085Z,2.85
2022-09-06T02:20:38.846Z,2.70
2022-09-06T02:23:09.285Z,3.00
2022-09-06T02:25:40.541Z,2.80
2022-09-06T02:28:09.882Z,2.72
2022-09-06T02:30:43.611Z,2.47
2022-09-06T02:33:15.490Z,2.85
2022-09-06T02:35:45.641Z,2.47
2022-09-06T02:38:14.503Z,2.42
2022-09-06T02:40:43.248Z,2.47
2022-09-06T02:43:11.435Z,2.85
2022-09-06T02:45:40.783Z,2.50
2022-09-06T02:48:08.838Z,2.13
2022-09-06T02:50:37.037Z,2.28
2022-09-06T02:53:07.306Z,2.40
2022-09-06T02:55:35.303Z,2.10
2022-09-06T02:58:03.575Z,2.20
2022-09-06T03:00:31.888Z,2.10
2022-09-06T03:03:01.497Z,1.75
2022-09-06T03:05:29.887Z,1.60
2022-09-06T03:07:58.384Z,1.95
2022-09-06T03:10:26.711Z,2.17
2022-09-06T03:12:54.804Z,2.28
2022-09-06T03:15:22.761Z,2.00
2022-09-06T03:17:51.047Z,2.20
2022-09-06T03:20:20.438Z,1.80
2022-09-06T03:22:48.397Z,1.92
2022-09-06T03:25:16.430Z,1.77
2022-09-06T03:27:44.980Z,1.73
2022-09-06T03:30:13.540Z,1.73
2022-09-06T03:32:41.489Z,2.00
2022-09-06T03:35:10.270Z,2.20
2022-09-06T03:37:39.600Z,2.15
2022-09-06T03:40:08.734Z,2.00
2022-09-06T03:42:36.810Z,2.00
2022-09-06T03:45:05.721Z,2.10
2022-09-06T03:47:33.932Z,1.80
2022-09-06T03:50:02.007Z,1.88
2022-09-06T03:52:29.977Z,1.95
2022-09-06T03:54:59.347Z,1.85
2022-09-06T03:57:27.369Z,2.33
2022-09-06T03:59:55.588Z,2.10
2022-09-06T04:02:23.644Z,2.10
2022-09-06T04:04:55.372Z,2.58
2022-09-06T04:07:23.643Z,2.55
2022-09-06T04:09:51.615Z,3.10
2022-09-06T04:12:20.914Z,2.78
2022-09-06T04:14:48.862Z,2.95
2022-09-06T04:17:17.071Z,2.72
2022-09-06T04:19:45.109Z,2.55
2022-09-06T04:22:13.414Z,2.70
2022-09-06T04:24:41.360Z,2.80
2022-09-06T04:27:09.369Z,2.83
2022-09-06T04:29:38.664Z,2.47
2022-09-06T04:32:07.000Z,3.10
2022-09-06T04:34:35.164Z,2.70
2022-09-06T04:37:03.154Z,3.17
2022-09-06T04:39:31.154Z,3.20
2022-09-06T04:41:59.146Z,3.05
2022-09-06T04:44:27.150Z,2.80
2022-09-06T04:47:09.351Z,3.42
2022-09-06T04:49:37.720Z,2.90
2022-09-06T04:52:05.958Z,3.35
2022-09-06T04:54:34.025Z,2.97
2022-09-06T04:57:02.380Z,3.17
2022-09-06T04:59:30.524Z,2.88
2022-09-06T05:01:58.561Z,3.17
2022-09-06T05:04:27.969Z,3.20
2022-09-06T05:07:02.237Z,2.85
2022-09-06T05:09:32.894Z,3.28
2022-09-06T05:12:01.649Z,2.88
2022-09-06T05:14:30.819Z,3.20
2022-09-06T05:16:58.853Z,2.90
2022-09-06T05:19:28.222Z,2.90
2022-09-06T05:21:56.171Z,3.08
2022-09-06T05:24:24.183Z,3.15
2022-09-06T05:26:52.143Z,2.90
2022-09-06T05:29:20.113Z,3.45
2022-09-06T05:31:48.131Z,3.05
2022-09-06T05:34:16.247Z,3.45
2022-09-06T05:36:46.146Z,3.05
2022-09-06T05:39:14.262Z,3.17
2022-09-06T05:41:42.274Z,3.10
2022-09-06T05:44:10.234Z,3.67
2022-09-06T05:46:43.377Z,3.08
2022-09-06T05:49:11.794Z,3.20
2022-09-06T05:51:40.097Z,3.17
2022-09-06T05:54:12.124Z,3.35
2022-09-06T05:56:40.108Z,3.28
2022-09-06T05:59:08.080Z,3.60
2022-09-06T06:01:36.210Z,3.15
2022-09-06T06:04:07.905Z,3.17
2022-09-06T06:06:36.206Z,4.10
2022-09-06T06:09:04.704Z,3.55
2022-09-06T06:11:34.107Z,3.70
2022-09-06T06:14:03.448Z,3.33
2022-09-06T06:16:31.791Z,3.33
2022-09-06T06:19:01.468Z,3.38
2022-09-06T06:21:31.270Z,3.42
2022-09-06T06:24:00.519Z,2.80
2022-09-06T06:26:30.399Z,3.10
2022-09-06T06:29:01.931Z,3.03
2022-09-06T06:31:31.104Z,3.22
2022-09-06T06:33:59.709Z,3.05
2022-09-06T06:36:30.805Z,3.17
2022-09-06T06:38:59.755Z,3.03
2022-09-06T06:41:29.884Z,2.72
2022-09-06T06:44:00.866Z,3.00
2022-09-06T06:46:31.161Z,2.70
2022-09-06T06:48:59.362Z,2.90
2022-09-06T06:51:29.242Z,2.78
2022-09-06T06:53:57.972Z,3.00
2022-09-06T06:56:27.864Z,2.78
2022-09-06T06:58:58.274Z,2.70
2022-09-06T07:01:30.802Z,2.88
2022-09-06T07:03:59.137Z,2.72
2022-09-06T07:09:18.188Z,2.13
2022-09-06T07:11:47.421Z,2.78
2022-09-06T07:14:15.690Z,2.40
2022-09-06T07:16:45.226Z,2.25
2022-09-06T07:22:04.563Z,2.35
2022-09-06T07:24:34.907Z,2.33
2022-09-06T07:29:51.418Z,2.58
2022-09-06T07:32:20.734Z,2.55
2022-09-06T07:34:49.038Z,2.70
2022-09-06T07:37:17.309Z,2.40
2022-09-06T07:39:45.675Z,2.65
2022-09-06T07:42:13.751Z,2.30
2022-09-06T07:44:42.286Z,2.30
2022-09-06T07:55:34.856Z,1.77
2022-09-06T07:58:03.214Z,2.03
2022-09-06T08:00:31.786Z,1.77
2022-09-06T08:02:59.945Z,2.20
2022-09-06T08:11:07.682Z,2.20
2022-09-06T08:13:35.818Z,1.80
2022-09-06T08:16:06.584Z,1.90
2022-09-06T08:18:35.896Z,2.00
2022-09-06T08:21:12.673Z,1.80
2022-09-06T08:23:43.609Z,1.58
2022-09-06T08:26:11.941Z,1.83
2022-09-06T08:28:39.958Z,1.90
2022-09-06T08:31:10.209Z,1.63
2022-09-06T08:33:38.771Z,1.90
2022-09-06T08:36:09.309Z,1.60
2022-09-06T08:38:37.599Z,2.45
2022-09-06T08:41:11.101Z,1.60
2022-09-06T08:43:40.076Z,2.00
2022-09-06T08:46:09.413Z,1.60
2022-09-06T08:48:39.858Z,2.00
2022-09-06T08:51:38.578Z,1.88
2022-09-06T08:54:14.764Z,1.70
2022-09-06T08:56:55.837Z,1.70
2022-09-06T08:59:24.626Z,2.15
2022-09-06T09:02:00.308Z,2.10
2022-09-06T09:04:31.489Z,1.90
2022-09-06T09:07:13.413Z,1.67
2022-09-06T09:09:42.061Z,1.65
2022-09-06T09:12:11.805Z,1.80
2022-09-06T09:14:43.049Z,1.80
2022-09-06T09:17:20.226Z,1.90
2022-09-06T09:19:48.375Z,1.58
2022-09-06T09:22:20.493Z,1.58
2022-09-06T09:24:51.870Z,1.92
2022-09-06T09:27:23.651Z,1.92
2022-09-06T09:32:50.037Z,1.70
2022-09-06T09:35:21.513Z,1.85
2022-09-06T09:38:11.807Z,1.50
2022-09-06T09:40:42.697Z,1.50
2022-09-06T09:43:17.361Z,1.67
2022-09-06T09:45:46.107Z,1.80
2022-09-06T09:48:20.750Z,1.75
2022-09-06T09:50:49.062Z,1.80
2022-09-06T09:53:22.203Z,1.90
2022-09-06T09:55:55.735Z,1.70
2022-09-06T09:58:32.278Z,1.90
2022-09-06T10:01:18.385Z,2.08
2022-09-06T10:09:34.806Z,1.58
2022-09-06T10:12:03.945Z,2.30
2022-09-06T10:14:35.093Z,2.15
2022-09-06T10:17:03.168Z,2.10
2022-09-06T10:19:44.122Z,2.10
2022-09-06T10:22:30.419Z,1.88
2022-09-06T10:25:26.453Z,1.98
2022-09-06T10:28:37.579Z,1.95
2022-09-06T10:31:37.167Z,2.05
2022-09-06T10:34:34.277Z,2.25
2022-09-06T10:37:14.268Z,2.03
2022-09-06T10:39:50.586Z,1.80
2022-09-06T10:42:33.696Z,1.98
2022-09-06T10:45:18.424Z,1.77
2022-09-06T10:47:58.376Z,1.90
2022-09-06T10:50:35.885Z,1.65
2022-09-06T10:53:10.349Z,2.10
2022-09-06T10:55:44.321Z,1.98
2022-09-06T11:01:39.414Z,2.13
2022-09-06T11:04:20.614Z,2.03
2022-09-06T11:06:55.591Z,2.05
2022-09-06T11:09:28.707Z,2.17
2022-09-06T11:12:04.549Z,2.40
2022-09-06T11:14:36.373Z,2.17
2022-09-06T11:17:09.720Z,2.00
2022-09-06T11:19:46.425Z,2.15
2022-09-06T11:22:43.541Z,2.20
2022-09-06T11:25:45.610Z,2.10
2022-09-06T11:28:18.045Z,1.83
2022-09-06T11:30:51.823Z,2.00
2022-09-06T11:33:25.638Z,2.08
2022-09-06T11:35:55.017Z,1.90
2022-09-06T11:38:26.513Z,1.98
2022-09-06T11:41:00.854Z,1.50
2022-09-06T11:43:46.903Z,1.48
2022-09-06T11:46:49.286Z,1.85
2022-09-06T11:49:33.003Z,1.42
2022-09-06T11:52:01.468Z,1.90
2022-09-06T11:54:39.412Z,1.58
2022-09-06T11:57:15.546Z,1.85
2022-09-06T11:59:53.569Z,1.55
2022-09-06T12:02:35.173Z,2.00
2022-09-06T12:05:29.229Z,1.63
2022-09-06T12:08:35.145Z,1.70
2022-09-06T12:11:22.568Z,1.60
2022-09-06T12:13:57.401Z,1.35
2022-09-06T12:16:26.809Z,1.88
2022-09-06T12:19:00.821Z,1.73
2022-09-06T12:21:47.408Z,1.80
2022-09-06T12:24:53.968Z,1.77
2022-09-06T12:27:23.321Z,1.98
2022-09-06T12:29:59.318Z,1.88
2022-09-06T12:32:34.802Z,2.00
2022-09-06T12:38:00.763Z,1.90
2022-09-06T12:40:34.181Z,2.05
2022-09-06T12:43:06.364Z,1.60
2022-09-06T12:45:36.559Z,1.73
2022-09-06T12:48:10.118Z,1.77
2022-09-06T12:50:39.445Z,1.80
2022-09-06T12:53:25.438Z,1.77
2022-09-06T12:56:06.859Z,1.80
2022-09-06T12:58:37.096Z,1.80
2022-09-06T13:01:12.483Z,2.00
2022-09-06T13:03:43.539Z,1.95
2022-09-06T13:06:23.219Z,1.98
2022-09-06T13:08:57.902Z,1.98
2022-09-06T13:11:29.570Z,2.15
2022-09-06T13:13:57.870Z,2.00
2022-09-06T13:16:28.318Z,2.10
2022-09-06T13:19:11.479Z,2.20
2022-09-06T13:21:43.184Z,2.05
2022-09-06T13:24:25.066Z,2.00
2022-09-06T13:26:53.649Z,1.90
2022-09-06T13:29:27.453Z,2.42
2022-09-06T13:31:57.909Z,2.10
2022-09-06T13:34:27.942Z,2.17
2022-09-06T13:37:03.275Z,1.83
2022-09-06T13:39:34.613Z,2.15
2022-09-06T13:42:05.705Z,1.88
2022-09-06T13:44:35.569Z,1.90
2022-09-06T13:47:03.923Z,2.05
2022-09-06T13:49:33.750Z,2.38
2022-09-06T13:52:03.578Z,1.90
2022-09-06T13:54:33.770Z,2.00
2022-09-06T13:57:03.303Z,2.15
2022-09-06T13:59:31.587Z,1.98
2022-09-06T14:02:02.848Z,2.50
2022-09-06T14:04:31.915Z,2.30
2022-09-06T14:07:00.151Z,2.17
2022-09-06T14:09:28.210Z,2.78
2022-09-06T14:11:58.222Z,2.20
2022-09-06T14:14:26.261Z,2.17
2022-09-06T14:16:54.755Z,2.28
2022-09-06T14:19:23.139Z,2.40
2022-09-06T14:21:51.429Z,2.15
2022-09-06T14:24:19.477Z,2.40
2022-09-06T14:26:47.687Z,2.42
2022-09-06T14:29:17.254Z,2.35
2022-09-06T14:31:45.219Z,2.33
2022-09-06T14:34:13.161Z,2.80
2022-09-06T14:36:41.178Z,2.10
2022-09-06T14:39:09.161Z,2.42
2022-09-06T14:41:37.152Z,2.72
2022-09-06T14:44:05.340Z,2.28
2022-09-06T14:46:34.914Z,2.35
2022-09-06T14:49:07.182Z,2.40
2022-09-06T14:51:36.799Z,2.50
2022-09-06T14:54:07.256Z,2.40
2022-09-06T14:56:35.240Z,2.58
2022-09-06T14:59:03.930Z,2.58
2022-09-06T15:01:38.107Z,2.67
2022-09-06T15:04:09.154Z,2.40
2022-09-06T15:06:39.975Z,2.50
2022-09-06T15:09:10.140Z,2.42
2022-09-06T15:11:41.071Z,3.10
2022-09-06T15:14:14.240Z,2.63
2022-09-06T15:16:43.999Z,2.30
2022-09-06T15:19:12.018Z,2.60
2022-09-06T15:21:40.193Z,2.58
2022-09-06T15:24:12.032Z,2.80
2022-09-06T15:26:40.897Z,2.65
2022-09-06T15:29:09.077Z,2.50
2022-09-06T15:31:38.322Z,2.60
2022-09-06T15:34:09.749Z,2.40
2022-09-06T15:36:38.307Z,2.60
2022-09-06T15:39:07.187Z,2.60
2022-09-06T15:41:40.780Z,2.60
2022-09-06T15:44:10.965Z,2.33
2022-09-06T15:46:46.123Z,3.15
2022-09-06T15:49:19.378Z,3.38
2022-09-06T15:51:47.650Z,3.97
2022-09-06T15:54:18.665Z,2.97
2022-09-06T15:56:45.868Z,2.85
2022-09-06T15:59:14.009Z,3.08
2022-09-06T16:01:42.125Z,2.53
2022-09-06T16:04:10.764Z,2.65
2022-09-06T16:06:42.403Z,2.60
2022-09-06T16:09:13.993Z,2.70
2022-09-06T16:11:42.947Z,2.88
2022-09-06T16:14:12.649Z,2.72
2022-09-06T16:16:42.264Z,2.67
2022-09-06T16:19:11.295Z,2.53
2022-09-06T16:21:42.216Z,2.38
2022-09-06T16:24:12.873Z,2.40
2022-09-06T16:26:43.094Z,2.75
2022-09-06T16:29:12.858Z,2.47
2022-09-06T16:31:41.516Z,2.70
2022-09-06T16:34:10.098Z,2.80
2022-09-06T16:36:39.955Z,2.85
2022-09-06T16:39:08.453Z,3.28
2022-09-06T16:41:40.463Z,3.80
2022-09-06T16:44:09.660Z,3.40
2022-09-06T16:46:39.973Z,3.10
2022-09-06T16:49:07.976Z,3.83
2022-09-06T16:51:35.992Z,3.50
2022-09-06T16:54:05.593Z,3.22
2022-09-06T16:56:35.812Z,3.40
2022-09-06T16:59:06.867Z,3.10
2022-09-06T17:01:36.522Z,2.65
2022-09-06T17:04:05.814Z,2.90
2022-09-06T17:06:38.160Z,2.60
2022-09-06T17:09:07.669Z,2.47
2022-09-06T17:11:37.155Z,2.97
2022-09-06T17:14:05.155Z,3.05
2022-09-06T17:16:47.111Z,3.45
2022-09-06T17:19:15.375Z,3.10
2022-09-06T17:21:44.449Z,3.55
2022-09-06T17:24:13.761Z,3.45
2022-09-06T17:26:41.695Z,4.28
2022-09-06T17:29:10.410Z,4.68
2022-09-06T17:31:38.796Z,3.90
2022-09-06T17:34:07.702Z,3.72
2022-09-06T17:36:36.816Z,3.83
2022-09-06T17:39:06.638Z,3.55
2022-09-06T17:41:38.686Z,3.50
2022-09-06T17:44:07.677Z,2.90
2022-09-06T17:46:35.612Z,3.25
2022-09-06T17:49:05.334Z,3.28
2022-09-06T17:51:33.833Z,3.20
2022-09-06T17:54:02.012Z,3.60
2022-09-06T17:56:30.496Z,3.45
2022-09-06T17:59:01.514Z,2.67
2022-09-06T18:01:32.305Z,2.90
2022-09-06T18:04:00.934Z,2.58
2022-09-06T18:06:31.471Z,2.30
2022-09-06T18:09:03.380Z,2.88
2022-09-06T18:11:33.991Z,2.67
2022-09-06T18:14:05.123Z,2.72
2022-09-06T18:16:34.722Z,2.97
2022-09-06T18:19:04.576Z,2.97
2022-09-06T18:21:34.496Z,2.42
2022-09-06T18:24:02.843Z,2.80
2022-09-06T18:26:30.876Z,2.88
2022-09-06T18:28:58.907Z,2.97
2022-09-06T18:31:28.932Z,2.78
2022-09-06T18:33:58.820Z,3.00
2022-09-06T18:36:31.800Z,3.03
2022-09-06T18:39:02.929Z,3.05
2022-09-06T18:41:48.937Z,3.10
2022-09-06T18:44:17.534Z,3.17
2022-09-06T18:46:47.039Z,3.20
2022-09-06T18:49:15.485Z,3.03
2022-09-06T18:51:44.592Z,2.55
2022-09-06T18:54:12.657Z,3.03
2022-09-06T18:56:42.079Z,2.90
2022-09-06T18:59:10.760Z,2.75
2022-09-06T19:01:39.675Z,2.85
2022-09-06T19:04:09.777Z,3.03
2022-09-06T19:06:40.168Z,3.38
2022-09-06T19:09:10.670Z,2.90
2022-09-06T19:11:39.565Z,2.42
2022-09-06T19:14:07.568Z,2.70
2022-09-06T19:16:35.690Z,2.63
2022-09-06T19:19:05.536Z,3.08
2022-09-06T19:21:40.830Z,2.58
2022-09-06T19:24:11.775Z,2.75
2022-09-06T19:26:42.242Z,2.47
2022-09-06T19:29:15.523Z,2.40
2022-09-06T19:31:43.678Z,2.25
2022-09-06T19:34:13.459Z,2.75
2022-09-06T19:36:43.771Z,2.35
2022-09-06T19:39:14.985Z,2.33
2022-09-06T19:41:47.252Z,2.35
2022-09-06T19:44:16.080Z,2.28
2022-09-06T19:46:46.605Z,2.35
2022-09-06T19:49:15.880Z,2.10
2022-09-06T19:51:46.507Z,1.83
2022-09-06T19:54:15.267Z,1.55
2022-09-06T19:56:44.103Z,1.85
2022-09-06T19:59:13.348Z,2.03
2022-09-06T20:01:43.774Z,2.03
2022-09-06T20:04:13.806Z,1.80
2022-09-06T20:06:42.309Z,1.70
2022-09-06T20:09:12.150Z,1.95
2022-09-06T20:11:41.449Z,1.90
2022-09-06T20:14:10.144Z,1.90
2022-09-06T20:16:41.713Z,2.10
2022-09-06T20:19:11.851Z,2.80
2022-09-06T20:21:39.898Z,2.40
2022-09-06T20:24:08.113Z,2.25
2022-09-06T20:26:37.685Z,2.40
2022-09-06T20:29:06.500Z,2.75
2022-09-06T20:31:36.261Z,2.65
2022-09-06T20:34:06.484Z,2.70
2022-09-06T20:36:34.517Z,2.30
2022-09-06T20:39:03.040Z,2.60
2022-09-06T20:41:31.152Z,2.60
2022-09-06T20:44:00.994Z,2.40
2022-09-06T20:46:31.203Z,2.25
2022-09-06T20:49:03.412Z,2.50
2022-09-06T20:51:32.828Z,3.00
2022-09-06T20:54:02.266Z,3.10
2022-09-06T20:56:33.103Z,2.75
2022-09-06T20:59:04.538Z,2.83
2022-09-06T21:01:34.934Z,3.00
2022-09-06T21:04:05.181Z,3.28
2022-09-06T21:06:35.604Z,3.10
2022-09-06T21:09:04.331Z,2.78
2022-09-06T21:11:32.373Z,2.45
2022-09-06T21:14:01.762Z,2.88
2022-09-06T21:16:30.685Z,2.70
2022-09-06T21:19:00.656Z,2.95
2022-09-06T21:21:30.711Z,2.70
2022-09-06T21:24:00.390Z,2.60
2022-09-06T21:26:28.836Z,2.95
2022-09-06T21:28:56.806Z,2.85
2022-09-06T21:31:27.702Z,2.92
2022-09-06T21:33:57.240Z,2.45
2022-09-06T21:36:29.146Z,3.33
2022-09-06T21:38:59.014Z,3.70
2022-09-06T21:41:28.044Z,3.55
2022-09-06T21:43:58.155Z,3.00
2022-09-06T21:46:32.959Z,3.50
2022-09-06T21:49:03.763Z,3.85
2022-09-06T21:51:32.537Z,2.58
2022-09-06T21:54:03.390Z,2.95
2022-09-06T21:56:31.742Z,2.90
2022-09-06T21:58:59.872Z,3.53
2022-09-06T22:01:31.708Z,3.63
2022-09-06T22:04:00.579Z,3.42
2022-09-06T22:06:30.880Z,3.70
2022-09-06T22:09:00.135Z,3.80
2022-09-06T22:11:29.584Z,4.03
2022-09-06T22:13:59.943Z,3.80
2022-09-06T22:16:30.251Z,3.55
2022-09-06T22:18:58.358Z,4.30
2022-09-06T22:21:26.526Z,4.10
2022-09-06T22:23:56.210Z,3.95
2022-09-06T22:26:25.237Z,3.80
2022-09-06T22:28:55.061Z,4.30
2022-09-06T22:31:24.366Z,4.10
2022-09-06T22:33:54.251Z,4.07
2022-09-06T22:36:23.726Z,4.25
2022-09-06T22:38:57.018Z,4.10
2022-09-06T22:41:25.470Z,4.40
2022-09-06T22:43:53.468Z,4.03
2022-09-06T22:46:21.547Z,4.53
2022-09-06T22:48:50.321Z,4.10
2022-09-06T22:51:19.628Z,4.30
2022-09-06T22:53:47.569Z,4.88
2022-09-06T22:56:15.629Z,4.60
2022-09-06T22:58:43.697Z,4.38
2022-09-06T23:01:14.004Z,4.72
2022-09-06T23:03:42.789Z,4.95
2022-09-06T23:06:11.265Z,4.95
2022-09-06T23:08:41.740Z,5.47
2022-09-06T23:11:11.737Z,4.97
2022-09-06T23:13:43.360Z,4.78
2022-09-06T23:16:13.525Z,4.95
2022-09-06T23:18:41.591Z,4.93
2022-09-06T23:21:11.754Z,5.10
2022-09-06T23:23:41.518Z,4.70
2022-09-06T23:26:11.408Z,4.65
2022-09-06T23:28:40.076Z,4.75
2022-09-06T23:31:10.255Z,5.15
2022-09-06T23:33:39.037Z,4.28
2022-09-06T23:36:08.651Z,4.60
2022-09-06T23:38:38.464Z,4.18
2022-09-06T23:41:08.691Z,4.65
2022-09-06T23:43:36.994Z,4.20
2022-09-06T23:46:05.032Z,4.95
2022-09-06T23:48:33.328Z,5.07
2022-09-06T23:51:01.888Z,4.75
2022-09-06T23:53:30.109Z,4.57
2022-09-06T23:55:58.570Z,4.25
2022-09-06T23:58:27.918Z,4.50
